»·PEaware :: PHTIM KAJO-KVCV

PHTIM :: KAJO-KVCV

FLIGHT INFORMATION

Flight Status: Arrived
Operator: Unknown
More flights by this operator :: More flights under this callsign
Pilot: Tim P. (6337)
Aircraft: CESSNA 172 SKYHAWK
(C172)
More flights by this aircraft type
Origin: KAJO Corona Mun
United States
Destination: KVCV Socal Logistics
United States
More flights between these airports :: More routes between these airports
Route: PDZ V442 APLES
File this flight plan on PilotEdge
Remarks: ODP, I-11 rating
Altitude:
(Current/Filed)
9,000ft
Speed:
(Current/Filed)
105kts
Departed: 11-Dec-18 10:05 AM
Arrived: 11-Dec-18 11:12 AM
Distance/Time
Traveled:
43nm/1:07
Distance/Time
To Go:
Arrived

Flight Plot

Page will automatically refresh every two minutes.


Map Options




Map Legend


Flown Route
Filed Route
Departure Airport
Arrival Airport
Navaid (VOR, NDB)
Fix

Horizontal Profiles

Position Reports

Time Latitude Longitude Heading Altitude Ground
Speed
11-Dec-18 08:54 33.896737 -117.597527 90 537ft 0kts
11-Dec-18 08:55 33.896737 -117.597527 90 537ft 0kts
11-Dec-18 08:56 33.896737 -117.597527 90 537ft 0kts
11-Dec-18 08:57 33.896737 -117.597527 90 537ft 0kts
11-Dec-18 08:58 33.896737 -117.597527 90 537ft 0kts
11-Dec-18 08:59 33.896737 -117.597527 90 537ft 0kts
11-Dec-18 09:00 33.896737 -117.597527 90 537ft 0kts
11-Dec-18 09:01 33.896737 -117.597527 90 537ft 0kts
11-Dec-18 09:02 33.896737 -117.597527 90 537ft 0kts
11-Dec-18 09:03 33.896737 -117.597527 90 537ft 0kts
11-Dec-18 09:04 33.896737 -117.597527 90 537ft 0kts
11-Dec-18 09:05 33.896737 -117.597527 90 537ft 0kts
11-Dec-18 09:06 33.896737 -117.597527 90 537ft 0kts
11-Dec-18 09:07 33.896737 -117.597527 90 537ft 0kts
11-Dec-18 09:08 33.896737 -117.597527 90 537ft 0kts
11-Dec-18 09:09 33.896737 -117.597527 90 537ft 0kts
11-Dec-18 09:10 33.896737 -117.597527 90 537ft 0kts
11-Dec-18 09:11 33.896737 -117.597527 90 537ft 0kts
11-Dec-18 09:12 33.896737 -117.597527 90 537ft 0kts
11-Dec-18 09:13 33.896737 -117.597527 90 537ft 0kts
11-Dec-18 09:14 33.896737 -117.597527 90 537ft 0kts
11-Dec-18 09:15 33.896737 -117.597527 90 537ft 0kts
11-Dec-18 09:16 33.896737 -117.597527 90 537ft 0kts
11-Dec-18 09:17 33.896737 -117.597527 90 537ft 0kts
11-Dec-18 09:18 33.896737 -117.597527 90 537ft 0kts
11-Dec-18 09:19 33.896737 -117.597527 90 537ft 0kts
11-Dec-18 09:20 33.896737 -117.597527 90 537ft 0kts
11-Dec-18 09:21 33.896737 -117.597527 90 537ft 0kts
11-Dec-18 09:22 33.896737 -117.597527 90 537ft 0kts
11-Dec-18 09:23 33.896737 -117.597527 90 537ft 0kts
11-Dec-18 09:24 33.896737 -117.597527 90 537ft 0kts
11-Dec-18 09:25 33.896737 -117.597527 90 537ft 0kts
11-Dec-18 09:26 33.896737 -117.597527 90 537ft 0kts
11-Dec-18 09:27 33.896737 -117.597527 90 537ft 0kts
11-Dec-18 09:28 33.896737 -117.597527 90 537ft 0kts
11-Dec-18 09:29 33.896737 -117.597527 90 537ft 0kts
11-Dec-18 09:30 33.896737 -117.597527 90 537ft 0kts
11-Dec-18 09:31 33.896737 -117.597527 90 537ft 0kts
11-Dec-18 09:32 33.896737 -117.597527 90 537ft 0kts
11-Dec-18 09:33 33.896737 -117.597527 90 537ft 0kts
11-Dec-18 09:34 33.896737 -117.597527 90 537ft 0kts
11-Dec-18 09:35 33.896737 -117.597527 90 537ft 0kts
11-Dec-18 09:36 33.896737 -117.597527 90 537ft 0kts
11-Dec-18 09:37 33.896737 -117.597527 90 537ft 0kts
11-Dec-18 09:38 33.896737 -117.597527 90 537ft 0kts
11-Dec-18 09:39 33.896737 -117.597527 90 537ft 0kts
11-Dec-18 09:40 33.896737 -117.597527 90 537ft 0kts
11-Dec-18 09:41 33.896737 -117.597527 90 537ft 0kts
11-Dec-18 09:42 33.896737 -117.597527 90 537ft 0kts
11-Dec-18 09:43 33.896737 -117.597527 90 537ft 0kts
11-Dec-18 09:44 33.896737 -117.597527 90 537ft 0kts
11-Dec-18 09:45 33.896737 -117.597527 90 537ft 0kts
11-Dec-18 09:46 33.896737 -117.597527 90 537ft 0kts
11-Dec-18 09:47 33.896737 -117.597527 90 537ft 0kts
11-Dec-18 09:48 33.896737 -117.597527 90 537ft 0kts
11-Dec-18 09:49 33.896737 -117.597527 90 537ft 0kts
11-Dec-18 09:50 33.896737 -117.597527 90 537ft 0kts
11-Dec-18 09:51 33.896737 -117.597527 90 537ft 0kts
11-Dec-18 09:52 33.896737 -117.597527 90 537ft 0kts
11-Dec-18 09:53 33.896737 -117.597527 90 537ft 0kts
11-Dec-18 09:54 33.896737 -117.597527 90 537ft 0kts
11-Dec-18 09:55 33.896737 -117.597527 90 537ft 0kts
11-Dec-18 09:56 33.896737 -117.597527 90 537ft 0kts
11-Dec-18 09:57 33.895904 -117.597609 308 537ft 7kts
11-Dec-18 09:58 33.897288 -117.599128 269 537ft 12kts
11-Dec-18 09:59 33.897232 -117.603765 269 537ft 13kts
11-Dec-18 10:00 33.897185 -117.607532 348 537ft 0kts
11-Dec-18 10:01 33.897185 -117.607532 348 537ft 0kts
11-Dec-18 10:02 33.897185 -117.607532 348 537ft 0kts
11-Dec-18 10:03 33.897185 -117.607532 348 537ft 0kts
11-Dec-18 10:04 33.897557 -117.599470 84 641ft 68kts
11-Dec-18 10:05 33.909817 -117.582604 60 1369ft 75kts
11-Dec-18 10:06 33.912752 -117.558509 71 2191ft 71kts
11-Dec-18 10:07 33.920567 -117.537373 43 2914ft 71kts
11-Dec-18 10:08 33.930837 -117.516626 41 3563ft 76kts
11-Dec-18 10:09 33.932918 -117.526910 178 4167ft 91kts
11-Dec-18 10:10 33.917524 -117.539317 318 4760ft 84kts
11-Dec-18 10:11 33.933855 -117.529009 48 5364ft 77kts
11-Dec-18 10:12 33.939683 -117.507994 145 5919ft 89kts
11-Dec-18 10:13 33.921319 -117.525767 219 6469ft 91kts
11-Dec-18 10:14 33.923953 -117.542348 42 7001ft 76kts
11-Dec-18 10:15 33.938185 -117.522998 44 7518ft 77kts
11-Dec-18 10:16 33.929704 -117.516264 257 7949ft 93kts
11-Dec-18 10:17 33.913925 -117.539914 284 8436ft 89kts
11-Dec-18 10:18 33.928286 -117.532504 32 8957ft 72kts
11-Dec-18 10:19 33.945116 -117.512846 30 9130ft 101kts
11-Dec-18 10:20 33.970791 -117.495670 30 8961ft 104kts
11-Dec-18 10:21 33.995557 -117.478938 30 8859ft 100kts
11-Dec-18 10:22 34.018529 -117.462274 29 8903ft 94kts
11-Dec-18 10:23 34.042050 -117.448654 27 9016ft 94kts
11-Dec-18 10:24 34.065257 -117.433015 31 9077ft 98kts
11-Dec-18 10:25 34.090057 -117.416759 22 9052ft 104kts
11-Dec-18 10:26 34.113486 -117.404066 24 9054ft 105kts
11-Dec-18 10:27 34.141211 -117.389946 21 8954ft 108kts
11-Dec-18 10:28 34.168487 -117.374790 24 8869ft 108kts
11-Dec-18 10:30 34.194080 -117.358440 28 8930ft 103kts
11-Dec-18 10:31 34.218480 -117.342552 30 8969ft 103kts
11-Dec-18 10:32 34.242575 -117.324918 30 9039ft 102kts
11-Dec-18 10:33 34.266917 -117.307116 28 9063ft 103kts
11-Dec-18 10:34 34.292217 -117.289514 28 9042ft 106kts
11-Dec-18 10:35 34.318410 -117.271894 27 8992ft 106kts
11-Dec-18 10:36 34.344502 -117.254323 29 8936ft 108kts
11-Dec-18 10:37 34.369355 -117.236609 32 8980ft 105kts
11-Dec-18 10:38 34.393437 -117.217689 34 9034ft 103kts
11-Dec-18 10:39 34.417010 -117.197951 31 9051ft 104kts
11-Dec-18 10:40 34.442652 -117.182993 24 9080ft 104kts
11-Dec-18 10:41 34.469080 -117.168711 22 9110ft 104kts
11-Dec-18 10:42 34.495298 -117.153657 26 9093ft 108kts
11-Dec-18 10:43 34.522223 -117.137019 27 8992ft 109kts
11-Dec-18 10:44 34.549080 -117.120172 19 8819ft 115kts
11-Dec-18 10:45 34.582346 -117.117243 352 8154ft 125kts
11-Dec-18 10:46 34.616531 -117.128001 342 7335ft 125kts
11-Dec-18 10:47 34.647401 -117.147536 326 6592ft 126kts
11-Dec-18 10:47 34.671457 -117.161414 344 6381ft 106kts
11-Dec-18 10:49 34.702132 -117.178942 332 6470ft 104kts
11-Dec-18 10:49 34.722715 -117.195206 323 6477ft 111kts
11-Dec-18 10:51 34.747993 -117.227963 311 6358ft 117kts
11-Dec-18 10:52 34.767041 -117.258978 307 6369ft 113kts
11-Dec-18 10:52 34.780145 -117.287410 298 6254ft 118kts
11-Dec-18 10:53 34.791951 -117.326613 282 5675ft 129kts
11-Dec-18 10:54 34.781787 -117.366530 229 5042ft 131kts
11-Dec-18 10:55 34.748436 -117.378104 184 4377ft 125kts
11-Dec-18 10:56 34.715297 -117.381596 184 4132ft 116kts
11-Dec-18 10:57 34.681398 -117.387075 182 4015ft 124kts
11-Dec-18 10:58 34.646647 -117.387224 173 3494ft 124kts
11-Dec-18 10:59 34.612142 -117.386793 177 3182ft 123kts
11-Dec-18 11:00 34.580498 -117.390086 226 3784ft 104kts
11-Dec-18 11:01 34.590705 -117.415770 314 4446ft 91kts
11-Dec-18 11:02 34.603796 -117.441891 288 5075ft 95kts
11-Dec-18 11:03 34.608132 -117.473497 283 5677ft 95kts
11-Dec-18 11:04 34.618083 -117.464389 95 5600ft 98kts
11-Dec-18 11:05 34.606602 -117.433607 76 4847ft 103kts
11-Dec-18 11:06 34.615934 -117.402845 67 4186ft 91kts
11-Dec-18 11:07 34.637657 -117.398724 14 3585ft 79kts
11-Dec-18 11:08 34.627319 -117.386920 175 3050ft 78kts
11-Dec-18 11:09 34.606045 -117.386644 173 2941ft 75kts
11-Dec-18 11:10 34.588640 -117.386459 178 2869ft 44kts
11-Dec-18 11:11 34.580629 -117.384480 39 2887ft 16kts
11-Dec-18 11:12 34.584986 -117.382503 60 2879ft 18kts
11-Dec-18 11:13 34.588218 -117.377621 93 2876ft 17kts
11-Dec-18 11:14 34.587709 -117.375588 43 2877ft 0kts
11-Dec-18 11:15 34.587709 -117.375588 43 2877ft 0kts
11-Dec-18 11:16 34.587709 -117.375588 43 2877ft 0kts
11-Dec-18 11:17 34.587709 -117.375588 43 2877ft 0kts
11-Dec-18 11:18 34.587709 -117.375588 43 2877ft 0kts
11-Dec-18 11:19 34.587709 -117.375588 43 2877ft 0kts
11-Dec-18 11:20 34.587709 -117.375588 43 2877ft 0kts
11-Dec-18 11:21 34.587709 -117.375588 43 2877ft 0kts

Navigation Log

Ident Type
Flight plan parsing failed, navigation log unavailable